sensor_id;sensor_type;location;lat;lon;timestamp;P1;durP1;ratioP1;P2;durP2;ratioP2
43248;SDS011;29216;51.248;6.808;2023-05-20T00:01:11;3.97;;;2.40;;
43248;SDS011;29216;51.248;6.808;2023-05-20T00:03:37;2.60;;;2.28;;
43248;SDS011;29216;51.248;6.808;2023-05-20T00:06:03;3.50;;;2.30;;
43248;SDS011;29216;51.248;6.808;2023-05-20T00:08:29;5.20;;;2.65;;
43248;SDS011;29216;51.248;6.808;2023-05-20T00:10:55;12.40;;;2.65;;
43248;SDS011;29216;51.248;6.808;2023-05-20T00:13:21;5.22;;;2.65;;
43248;SDS011;29216;51.248;6.808;2023-05-20T00:15:48;4.43;;;2.80;;
43248;SDS011;29216;51.248;6.808;2023-05-20T00:18:14;5.85;;;2.63;;
43248;SDS011;29216;51.248;6.808;2023-05-20T00:20:40;4.47;;;2.60;;
43248;SDS011;29216;51.248;6.808;2023-05-20T00:23:06;4.53;;;2.72;;
43248;SDS011;29216;51.248;6.808;2023-05-20T00:25:32;6.53;;;2.60;;
43248;SDS011;29216;51.248;6.808;2023-05-20T00:27:58;3.80;;;2.38;;
43248;SDS011;29216;51.248;6.808;2023-05-20T00:30:24;9.57;;;2.72;;
43248;SDS011;29216;51.248;6.808;2023-05-20T00:32:50;4.47;;;2.53;;
43248;SDS011;29216;51.248;6.808;2023-05-20T00:35:16;4.80;;;2.60;;
43248;SDS011;29216;51.248;6.808;2023-05-20T00:37:42;7.18;;;2.80;;
43248;SDS011;29216;51.248;6.808;2023-05-20T00:40:08;5.20;;;2.90;;
43248;SDS011;29216;51.248;6.808;2023-05-20T00:42:34;4.10;;;2.63;;
43248;SDS011;29216;51.248;6.808;2023-05-20T00:45:00;8.43;;;2.70;;
43248;SDS011;29216;51.248;6.808;2023-05-20T00:47:27;6.10;;;3.00;;
43248;SDS011;29216;51.248;6.808;2023-05-20T00:49:54;4.40;;;2.75;;
43248;SDS011;29216;51.248;6.808;2023-05-20T00:52:20;5.28;;;3.17;;
43248;SDS011;29216;51.248;6.808;2023-05-20T00:54:47;6.22;;;3.00;;
43248;SDS011;29216;51.248;6.808;2023-05-20T00:57:14;9.25;;;3.45;;
43248;SDS011;29216;51.248;6.808;2023-05-20T00:59:41;5.65;;;2.65;;
43248;SDS011;29216;51.248;6.808;2023-05-20T01:02:07;3.63;;;2.95;;
43248;SDS011;29216;51.248;6.808;2023-05-20T01:04:33;4.25;;;2.70;;
43248;SDS011;29216;51.248;6.808;2023-05-20T01:06:59;6.40;;;2.78;;
43248;SDS011;29216;51.248;6.808;2023-05-20T01:09:27;6.28;;;3.05;;
43248;SDS011;29216;51.248;6.808;2023-05-20T01:14:21;4.85;;;2.92;;
43248;SDS011;29216;51.248;6.808;2023-05-20T01:16:49;6.20;;;3.42;;
43248;SDS011;29216;51.248;6.808;2023-05-20T01:19:40;3.00;;;2.50;;
43248;SDS011;29216;51.248;6.808;2023-05-20T01:22:04;4.97;;;2.75;;
43248;SDS011;29216;51.248;6.808;2023-05-20T01:24:30;4.82;;;2.72;;
43248;SDS011;29216;51.248;6.808;2023-05-20T01:26:56;7.30;;;3.08;;
43248;SDS011;29216;51.248;6.808;2023-05-20T01:29:25;8.98;;;2.70;;
43248;SDS011;29216;51.248;6.808;2023-05-20T01:31:52;5.13;;;2.88;;
43248;SDS011;29216;51.248;6.808;2023-05-20T01:34:19;3.70;;;2.50;;
43248;SDS011;29216;51.248;6.808;2023-05-20T01:36:46;5.35;;;3.13;;
43248;SDS011;29216;51.248;6.808;2023-05-20T01:39:12;4.80;;;3.03;;
43248;SDS011;29216;51.248;6.808;2023-05-20T01:41:38;4.63;;;2.70;;
43248;SDS011;29216;51.248;6.808;2023-05-20T01:44:05;5.72;;;3.00;;
43248;SDS011;29216;51.248;6.808;2023-05-20T01:46:32;2.97;;;2.67;;
43248;SDS011;29216;51.248;6.808;2023-05-20T01:48:58;4.65;;;2.97;;
43248;SDS011;29216;51.248;6.808;2023-05-20T01:51:24;6.53;;;3.30;;
43248;SDS011;29216;51.248;6.808;2023-05-20T01:53:50;8.38;;;3.53;;
43248;SDS011;29216;51.248;6.808;2023-05-20T01:56:16;7.78;;;2.92;;
43248;SDS011;29216;51.248;6.808;2023-05-20T01:58:42;5.50;;;2.90;;
43248;SDS011;29216;51.248;6.808;2023-05-20T02:01:08;3.20;;;2.90;;
43248;SDS011;29216;51.248;6.808;2023-05-20T02:03:34;6.15;;;3.10;;
43248;SDS011;29216;51.248;6.808;2023-05-20T02:06:00;3.85;;;2.67;;
43248;SDS011;29216;51.248;6.808;2023-05-20T02:08:26;7.78;;;2.85;;
43248;SDS011;29216;51.248;6.808;2023-05-20T02:10:52;6.57;;;3.47;;
43248;SDS011;29216;51.248;6.808;2023-05-20T02:13:18;7.88;;;3.45;;
43248;SDS011;29216;51.248;6.808;2023-05-20T02:15:44;4.95;;;3.05;;
43248;SDS011;29216;51.248;6.808;2023-05-20T02:18:10;4.38;;;2.83;;
43248;SDS011;29216;51.248;6.808;2023-05-20T02:20:36;7.68;;;2.88;;
43248;SDS011;29216;51.248;6.808;2023-05-20T02:23:02;6.35;;;3.28;;
43248;SDS011;29216;51.248;6.808;2023-05-20T02:25:30;4.22;;;2.78;;
43248;SDS011;29216;51.248;6.808;2023-05-20T02:27:56;7.35;;;3.35;;
43248;SDS011;29216;51.248;6.808;2023-05-20T02:30:22;5.80;;;3.20;;
43248;SDS011;29216;51.248;6.808;2023-05-20T02:32:48;6.20;;;3.05;;
43248;SDS011;29216;51.248;6.808;2023-05-20T02:35:14;8.10;;;3.30;;
43248;SDS011;29216;51.248;6.808;2023-05-20T02:37:40;3.88;;;2.75;;
43248;SDS011;29216;51.248;6.808;2023-05-20T02:40:08;7.47;;;3.28;;
43248;SDS011;29216;51.248;6.808;2023-05-20T02:42:34;9.27;;;4.05;;
43248;SDS011;29216;51.248;6.808;2023-05-20T02:45:00;5.38;;;3.38;;
43248;SDS011;29216;51.248;6.808;2023-05-20T02:47:27;6.57;;;3.30;;
43248;SDS011;29216;51.248;6.808;2023-05-20T02:49:53;4.75;;;3.17;;
43248;SDS011;29216;51.248;6.808;2023-05-20T02:52:19;6.40;;;3.38;;
43248;SDS011;29216;51.248;6.808;2023-05-20T02:54:46;4.85;;;3.22;;
43248;SDS011;29216;51.248;6.808;2023-05-20T02:57:12;5.38;;;3.38;;
43248;SDS011;29216;51.248;6.808;2023-05-20T02:59:38;6.85;;;3.45;;
43248;SDS011;29216;51.248;6.808;2023-05-20T03:02:04;4.95;;;3.13;;
43248;SDS011;29216;51.248;6.808;2023-05-20T03:04:30;5.82;;;3.40;;
43248;SDS011;29216;51.248;6.808;2023-05-20T03:06:56;4.60;;;3.25;;
43248;SDS011;29216;51.248;6.808;2023-05-20T03:09:25;5.57;;;3.40;;
43248;SDS011;29216;51.248;6.808;2023-05-20T03:11:51;6.25;;;3.17;;
43248;SDS011;29216;51.248;6.808;2023-05-20T03:14:17;5.32;;;3.00;;
43248;SDS011;29216;51.248;6.808;2023-05-20T03:16:43;8.18;;;3.50;;
43248;SDS011;29216;51.248;6.808;2023-05-20T03:19:09;8.85;;;3.70;;
43248;SDS011;29216;51.248;6.808;2023-05-20T03:21:35;5.70;;;3.38;;
43248;SDS011;29216;51.248;6.808;2023-05-20T03:24:01;6.80;;;3.05;;
43248;SDS011;29216;51.248;6.808;2023-05-20T03:26:27;4.50;;;2.90;;
43248;SDS011;29216;51.248;6.808;2023-05-20T03:28:54;6.75;;;3.40;;
43248;SDS011;29216;51.248;6.808;2023-05-20T03:31:20;4.45;;;3.55;;
43248;SDS011;29216;51.248;6.808;2023-05-20T03:33:46;5.97;;;4.18;;
43248;SDS011;29216;51.248;6.808;2023-05-20T03:36:12;4.30;;;3.10;;
43248;SDS011;29216;51.248;6.808;2023-05-20T03:38:38;6.47;;;3.58;;
43248;SDS011;29216;51.248;6.808;2023-05-20T03:41:04;4.88;;;3.22;;
43248;SDS011;29216;51.248;6.808;2023-05-20T03:43:30;7.72;;;2.97;;
43248;SDS011;29216;51.248;6.808;2023-05-20T03:45:56;5.28;;;3.30;;
43248;SDS011;29216;51.248;6.808;2023-05-20T03:48:22;5.15;;;3.50;;
43248;SDS011;29216;51.248;6.808;2023-05-20T03:50:48;6.30;;;3.15;;
43248;SDS011;29216;51.248;6.808;2023-05-20T03:53:14;7.53;;;3.58;;
43248;SDS011;29216;51.248;6.808;2023-05-20T03:55:41;4.20;;;3.03;;
43248;SDS011;29216;51.248;6.808;2023-05-20T03:58:07;6.65;;;3.40;;
43248;SDS011;29216;51.248;6.808;2023-05-20T04:00:33;4.35;;;3.28;;
43248;SDS011;29216;51.248;6.808;2023-05-20T04:02:59;5.70;;;3.40;;
43248;SDS011;29216;51.248;6.808;2023-05-20T04:05:25;5.78;;;3.03;;
43248;SDS011;29216;51.248;6.808;2023-05-20T04:07:51;5.40;;;3.15;;
43248;SDS011;29216;51.248;6.808;2023-05-20T04:10:18;6.25;;;3.00;;
43248;SDS011;29216;51.248;6.808;2023-05-20T04:12:44;6.65;;;3.40;;
43248;SDS011;29216;51.248;6.808;2023-05-20T04:15:11;5.35;;;2.83;;
43248;SDS011;29216;51.248;6.808;2023-05-20T04:17:37;5.47;;;3.38;;
43248;SDS011;29216;51.248;6.808;2023-05-20T04:20:04;3.65;;;2.85;;
43248;SDS011;29216;51.248;6.808;2023-05-20T04:22:32;4.75;;;2.88;;
43248;SDS011;29216;51.248;6.808;2023-05-20T04:24:58;6.90;;;2.97;;
43248;SDS011;29216;51.248;6.808;2023-05-20T04:27:27;3.95;;;3.22;;
43248;SDS011;29216;51.248;6.808;2023-05-20T04:29:53;5.55;;;2.80;;
43248;SDS011;29216;51.248;6.808;2023-05-20T04:32:19;4.60;;;3.35;;
43248;SDS011;29216;51.248;6.808;2023-05-20T04:34:45;4.35;;;3.10;;
43248;SDS011;29216;51.248;6.808;2023-05-20T04:37:12;5.15;;;3.00;;
43248;SDS011;29216;51.248;6.808;2023-05-20T04:39:38;6.57;;;3.00;;
43248;SDS011;29216;51.248;6.808;2023-05-20T04:42:04;5.07;;;3.15;;
43248;SDS011;29216;51.248;6.808;2023-05-20T04:44:30;9.20;;;4.22;;
43248;SDS011;29216;51.248;6.808;2023-05-20T04:46:56;7.55;;;3.00;;
43248;SDS011;29216;51.248;6.808;2023-05-20T04:49:23;4.47;;;2.90;;
43248;SDS011;29216;51.248;6.808;2023-05-20T04:51:50;3.45;;;2.88;;
43248;SDS011;29216;51.248;6.808;2023-05-20T04:54:16;5.03;;;3.20;;
43248;SDS011;29216;51.248;6.808;2023-05-20T04:56:42;5.97;;;2.58;;
43248;SDS011;29216;51.248;6.808;2023-05-20T04:59:11;4.30;;;3.08;;
43248;SDS011;29216;51.248;6.808;2023-05-20T05:01:37;4.80;;;2.88;;
43248;SDS011;29216;51.248;6.808;2023-05-20T05:04:03;3.58;;;2.97;;
43248;SDS011;29216;51.248;6.808;2023-05-20T05:06:29;7.28;;;2.88;;
43248;SDS011;29216;51.248;6.808;2023-05-20T05:08:55;7.93;;;2.80;;
43248;SDS011;29216;51.248;6.808;2023-05-20T05:11:21;3.65;;;2.88;;
43248;SDS011;29216;51.248;6.808;2023-05-20T05:13:47;4.82;;;2.70;;
43248;SDS011;29216;51.248;6.808;2023-05-20T05:16:13;5.43;;;2.95;;
43248;SDS011;29216;51.248;6.808;2023-05-20T05:18:39;5.53;;;2.90;;
43248;SDS011;29216;51.248;6.808;2023-05-20T05:21:05;5.65;;;3.17;;
43248;SDS011;29216;51.248;6.808;2023-05-20T05:23:31;3.88;;;2.75;;
43248;SDS011;29216;51.248;6.808;2023-05-20T05:25:58;7.00;;;3.28;;
43248;SDS011;29216;51.248;6.808;2023-05-20T05:28:24;4.78;;;2.92;;
43248;SDS011;29216;51.248;6.808;2023-05-20T05:30:52;4.65;;;3.17;;
43248;SDS011;29216;51.248;6.808;2023-05-20T05:33:19;5.35;;;3.03;;
43248;SDS011;29216;51.248;6.808;2023-05-20T05:35:45;6.60;;;3.20;;
43248;SDS011;29216;51.248;6.808;2023-05-20T05:38:11;4.10;;;2.88;;
43248;SDS011;29216;51.248;6.808;2023-05-20T05:40:37;4.50;;;2.90;;
43248;SDS011;29216;51.248;6.808;2023-05-20T05:43:03;7.90;;;3.05;;
43248;SDS011;29216;51.248;6.808;2023-05-20T05:45:29;3.97;;;3.03;;
43248;SDS011;29216;51.248;6.808;2023-05-20T05:47:55;8.27;;;3.38;;
43248;SDS011;29216;51.248;6.808;2023-05-20T05:50:21;5.13;;;2.95;;
43248;SDS011;29216;51.248;6.808;2023-05-20T05:52:47;3.40;;;2.92;;
43248;SDS011;29216;51.248;6.808;2023-05-20T05:55:13;6.35;;;3.20;;
43248;SDS011;29216;51.248;6.808;2023-05-20T05:57:39;6.50;;;3.10;;
43248;SDS011;29216;51.248;6.808;2023-05-20T06:00:05;5.60;;;3.22;;
43248;SDS011;29216;51.248;6.808;2023-05-20T06:02:31;4.25;;;2.88;;
43248;SDS011;29216;51.248;6.808;2023-05-20T06:05:01;4.63;;;3.17;;
43248;SDS011;29216;51.248;6.808;2023-05-20T06:07:27;4.10;;;2.72;;
43248;SDS011;29216;51.248;6.808;2023-05-20T06:09:53;5.53;;;2.97;;
43248;SDS011;29216;51.248;6.808;2023-05-20T06:12:19;6.20;;;3.40;;
43248;SDS011;29216;51.248;6.808;2023-05-20T06:14:45;5.43;;;3.03;;
43248;SDS011;29216;51.248;6.808;2023-05-20T06:17:11;7.20;;;3.50;;
43248;SDS011;29216;51.248;6.808;2023-05-20T06:19:37;5.07;;;2.97;;
43248;SDS011;29216;51.248;6.808;2023-05-20T06:22:03;3.88;;;2.60;;
43248;SDS011;29216;51.248;6.808;2023-05-20T06:24:29;4.60;;;3.13;;
43248;SDS011;29216;51.248;6.808;2023-05-20T06:26:55;3.05;;;2.75;;
43248;SDS011;29216;51.248;6.808;2023-05-20T06:29:22;3.60;;;2.80;;
43248;SDS011;29216;51.248;6.808;2023-05-20T06:31:48;3.83;;;2.67;;
43248;SDS011;29216;51.248;6.808;2023-05-20T06:34:14;4.57;;;3.03;;
43248;SDS011;29216;51.248;6.808;2023-05-20T06:36:40;4.72;;;2.65;;
43248;SDS011;29216;51.248;6.808;2023-05-20T06:39:06;6.32;;;2.83;;
43248;SDS011;29216;51.248;6.808;2023-05-20T06:41:36;5.45;;;3.08;;
43248;SDS011;29216;51.248;6.808;2023-05-20T06:44:02;4.07;;;2.80;;
43248;SDS011;29216;51.248;6.808;2023-05-20T06:46:28;3.67;;;2.90;;
43248;SDS011;29216;51.248;6.808;2023-05-20T06:48:54;5.00;;;2.80;;
43248;SDS011;29216;51.248;6.808;2023-05-20T06:51:20;4.95;;;2.75;;
43248;SDS011;29216;51.248;6.808;2023-05-20T06:53:46;3.40;;;2.63;;
43248;SDS011;29216;51.248;6.808;2023-05-20T06:56:12;5.82;;;3.22;;
43248;SDS011;29216;51.248;6.808;2023-05-20T06:58:38;4.80;;;2.70;;
43248;SDS011;29216;51.248;6.808;2023-05-20T07:01:04;7.78;;;3.63;;
43248;SDS011;29216;51.248;6.808;2023-05-20T07:03:30;3.65;;;2.80;;
43248;SDS011;29216;51.248;6.808;2023-05-20T07:05:56;4.22;;;3.33;;
43248;SDS011;29216;51.248;6.808;2023-05-20T07:08:22;5.38;;;3.00;;
43248;SDS011;29216;51.248;6.808;2023-05-20T07:10:48;4.68;;;2.92;;
43248;SDS011;29216;51.248;6.808;2023-05-20T07:13:14;7.47;;;3.28;;
43248;SDS011;29216;51.248;6.808;2023-05-20T07:15:40;4.43;;;2.90;;
43248;SDS011;29216;51.248;6.808;2023-05-20T07:18:06;4.40;;;3.03;;
43248;SDS011;29216;51.248;6.808;2023-05-20T07:20:32;5.35;;;3.38;;
43248;SDS011;29216;51.248;6.808;2023-05-20T07:22:58;6.43;;;3.58;;
43248;SDS011;29216;51.248;6.808;2023-05-20T07:25:26;7.75;;;3.50;;
43248;SDS011;29216;51.248;6.808;2023-05-20T07:27:52;7.53;;;3.13;;
43248;SDS011;29216;51.248;6.808;2023-05-20T07:30:18;5.72;;;3.60;;
43248;SDS011;29216;51.248;6.808;2023-05-20T07:32:44;4.25;;;3.13;;
43248;SDS011;29216;51.248;6.808;2023-05-20T07:35:10;5.60;;;3.17;;
43248;SDS011;29216;51.248;6.808;2023-05-20T07:37:36;4.03;;;2.70;;
43248;SDS011;29216;51.248;6.808;2023-05-20T07:40:02;4.80;;;2.95;;
43248;SDS011;29216;51.248;6.808;2023-05-20T07:42:29;4.47;;;3.13;;
43248;SDS011;29216;51.248;6.808;2023-05-20T07:44:55;8.85;;;3.45;;
43248;SDS011;29216;51.248;6.808;2023-05-20T07:47:21;4.15;;;3.15;;
43248;SDS011;29216;51.248;6.808;2023-05-20T07:49:47;7.07;;;3.15;;
43248;SDS011;29216;51.248;6.808;2023-05-20T07:52:13;5.63;;;3.13;;
43248;SDS011;29216;51.248;6.808;2023-05-20T07:54:39;4.22;;;3.17;;
43248;SDS011;29216;51.248;6.808;2023-05-20T07:57:06;4.60;;;3.30;;
43248;SDS011;29216;51.248;6.808;2023-05-20T07:59:32;6.07;;;3.55;;
43248;SDS011;29216;51.248;6.808;2023-05-20T08:01:58;4.43;;;3.20;;
43248;SDS011;29216;51.248;6.808;2023-05-20T08:04:24;6.75;;;3.40;;
43248;SDS011;29216;51.248;6.808;2023-05-20T08:06:51;6.18;;;3.28;;
43248;SDS011;29216;51.248;6.808;2023-05-20T08:09:17;4.78;;;3.38;;
43248;SDS011;29216;51.248;6.808;2023-05-20T08:11:43;5.28;;;3.70;;
43248;SDS011;29216;51.248;6.808;2023-05-20T08:14:10;6.28;;;3.45;;
43248;SDS011;29216;51.248;6.808;2023-05-20T08:16:36;4.90;;;3.70;;
43248;SDS011;29216;51.248;6.808;2023-05-20T08:19:02;7.95;;;3.70;;
43248;SDS011;29216;51.248;6.808;2023-05-20T08:21:28;5.97;;;3.47;;
43248;SDS011;29216;51.248;6.808;2023-05-20T08:23:54;4.95;;;3.58;;
43248;SDS011;29216;51.248;6.808;2023-05-20T08:26:20;7.00;;;3.97;;
43248;SDS011;29216;51.248;6.808;2023-05-20T08:28:46;8.68;;;3.83;;
43248;SDS011;29216;51.248;6.808;2023-05-20T08:31:12;7.57;;;3.97;;
43248;SDS011;29216;51.248;6.808;2023-05-20T08:33:38;6.55;;;3.97;;
43248;SDS011;29216;51.248;6.808;2023-05-20T08:36:05;7.18;;;3.50;;
43248;SDS011;29216;51.248;6.808;2023-05-20T08:38:32;7.32;;;3.53;;
43248;SDS011;29216;51.248;6.808;2023-05-20T08:40:58;6.65;;;3.60;;
43248;SDS011;29216;51.248;6.808;2023-05-20T08:43:24;7.57;;;3.75;;
43248;SDS011;29216;51.248;6.808;2023-05-20T08:45:51;6.18;;;3.83;;
43248;SDS011;29216;51.248;6.808;2023-05-20T08:48:17;6.00;;;4.00;;
43248;SDS011;29216;51.248;6.808;2023-05-20T08:50:45;5.18;;;3.70;;
43248;SDS011;29216;51.248;6.808;2023-05-20T08:53:12;7.53;;;3.78;;
43248;SDS011;29216;51.248;6.808;2023-05-20T08:55:45;5.53;;;4.43;;
43248;SDS011;29216;51.248;6.808;2023-05-20T08:58:11;7.60;;;3.88;;
43248;SDS011;29216;51.248;6.808;2023-05-20T09:00:39;5.53;;;4.05;;
43248;SDS011;29216;51.248;6.808;2023-05-20T09:03:06;8.10;;;4.13;;
43248;SDS011;29216;51.248;6.808;2023-05-20T09:05:32;6.28;;;4.30;;
43248;SDS011;29216;51.248;6.808;2023-05-20T09:08:10;9.93;;;4.50;;
43248;SDS011;29216;51.248;6.808;2023-05-20T09:10:37;7.00;;;3.80;;
43248;SDS011;29216;51.248;6.808;2023-05-20T09:13:04;8.45;;;3.88;;
43248;SDS011;29216;51.248;6.808;2023-05-20T09:15:30;5.10;;;3.75;;
43248;SDS011;29216;51.248;6.808;2023-05-20T09:18:00;5.07;;;3.92;;
43248;SDS011;29216;51.248;6.808;2023-05-20T09:20:26;6.05;;;3.55;;
43248;SDS011;29216;51.248;6.808;2023-05-20T09:22:59;5.57;;;3.83;;
43248;SDS011;29216;51.248;6.808;2023-05-20T09:25:26;5.88;;;4.00;;
43248;SDS011;29216;51.248;6.808;2023-05-20T09:27:52;5.95;;;4.05;;
43248;SDS011;29216;51.248;6.808;2023-05-20T09:30:18;5.10;;;3.78;;
43248;SDS011;29216;51.248;6.808;2023-05-20T09:32:45;6.00;;;4.03;;
43248;SDS011;29216;51.248;6.808;2023-05-20T09:35:17;6.03;;;4.03;;
43248;SDS011;29216;51.248;6.808;2023-05-20T09:37:43;5.32;;;4.35;;
43248;SDS011;29216;51.248;6.808;2023-05-20T09:40:10;6.25;;;4.53;;
43248;SDS011;29216;51.248;6.808;2023-05-20T09:42:46;6.28;;;4.30;;
43248;SDS011;29216;51.248;6.808;2023-05-20T09:45:15;6.40;;;4.15;;
43248;SDS011;29216;51.248;6.808;2023-05-20T09:47:41;5.85;;;4.00;;
43248;SDS011;29216;51.248;6.808;2023-05-20T09:50:08;6.35;;;4.13;;
43248;SDS011;29216;51.248;6.808;2023-05-20T09:52:34;5.85;;;4.45;;
43248;SDS011;29216;51.248;6.808;2023-05-20T09:55:02;5.63;;;4.10;;
43248;SDS011;29216;51.248;6.808;2023-05-20T09:57:34;8.20;;;4.43;;
43248;SDS011;29216;51.248;6.808;2023-05-20T10:00:01;5.00;;;3.70;;
43248;SDS011;29216;51.248;6.808;2023-05-20T10:02:29;9.38;;;4.15;;
43248;SDS011;29216;51.248;6.808;2023-05-20T10:04:55;5.65;;;4.55;;
43248;SDS011;29216;51.248;6.808;2023-05-20T10:10:06;8.77;;;4.28;;
43248;SDS011;29216;51.248;6.808;2023-05-20T10:12:43;4.18;;;3.70;;
43248;SDS011;29216;51.248;6.808;2023-05-20T10:20:22;7.72;;;4.10;;
43248;SDS011;29216;51.248;6.808;2023-05-20T10:22:55;4.80;;;4.28;;
43248;SDS011;29216;51.248;6.808;2023-05-20T10:25:27;7.80;;;4.82;;
43248;SDS011;29216;51.248;6.808;2023-05-20T10:28:03;9.30;;;4.32;;
43248;SDS011;29216;51.248;6.808;2023-05-20T10:30:31;8.23;;;4.82;;
43248;SDS011;29216;51.248;6.808;2023-05-20T10:33:01;5.80;;;4.30;;
43248;SDS011;29216;51.248;6.808;2023-05-20T10:35:28;6.90;;;4.32;;
43248;SDS011;29216;51.248;6.808;2023-05-20T10:38:10;6.93;;;4.28;;
43248;SDS011;29216;51.248;6.808;2023-05-20T10:40:36;8.10;;;5.00;;
43248;SDS011;29216;51.248;6.808;2023-05-20T10:43:15;5.80;;;4.63;;
43248;SDS011;29216;51.248;6.808;2023-05-20T10:45:52;5.68;;;4.55;;
43248;SDS011;29216;51.248;6.808;2023-05-20T10:48:19;5.15;;;4.22;;
43248;SDS011;29216;51.248;6.808;2023-05-20T10:50:45;7.40;;;4.88;;
43248;SDS011;29216;51.248;6.808;2023-05-20T10:53:12;5.97;;;4.40;;
43248;SDS011;29216;51.248;6.808;2023-05-20T10:55:39;7.85;;;4.70;;
43248;SDS011;29216;51.248;6.808;2023-05-20T10:58:06;7.07;;;4.97;;
43248;SDS011;29216;51.248;6.808;2023-05-20T11:00:35;7.28;;;4.80;;
43248;SDS011;29216;51.248;6.808;2023-05-20T11:03:02;8.50;;;5.07;;
43248;SDS011;29216;51.248;6.808;2023-05-20T11:05:28;9.82;;;4.85;;
43248;SDS011;29216;51.248;6.808;2023-05-20T11:08:08;6.82;;;5.28;;
43248;SDS011;29216;51.248;6.808;2023-05-20T11:10:34;10.60;;;5.20;;
43248;SDS011;29216;51.248;6.808;2023-05-20T11:13:01;9.80;;;5.63;;
43248;SDS011;29216;51.248;6.808;2023-05-20T11:15:28;9.38;;;4.90;;
43248;SDS011;29216;51.248;6.808;2023-05-20T11:17:55;8.90;;;5.15;;
43248;SDS011;29216;51.248;6.808;2023-05-20T11:20:24;6.88;;;5.15;;
43248;SDS011;29216;51.248;6.808;2023-05-20T11:22:50;7.63;;;5.00;;
43248;SDS011;29216;51.248;6.808;2023-05-20T11:25:17;9.98;;;5.70;;
43248;SDS011;29216;51.248;6.808;2023-05-20T11:27:43;9.32;;;5.22;;
43248;SDS011;29216;51.248;6.808;2023-05-20T11:30:12;7.45;;;5.82;;
43248;SDS011;29216;51.248;6.808;2023-05-20T11:32:58;8.85;;;5.15;;
43248;SDS011;29216;51.248;6.808;2023-05-20T11:35:25;10.95;;;6.05;;
43248;SDS011;29216;51.248;6.808;2023-05-20T11:38:00;8.85;;;5.43;;
43248;SDS011;29216;51.248;6.808;2023-05-20T11:40:27;8.75;;;5.88;;
43248;SDS011;29216;51.248;6.808;2023-05-20T11:42:54;7.18;;;5.07;;
43248;SDS011;29216;51.248;6.808;2023-05-20T11:45:20;6.57;;;5.05;;
43248;SDS011;29216;51.248;6.808;2023-05-20T11:47:57;6.93;;;5.30;;
43248;SDS011;29216;51.248;6.808;2023-05-20T11:50:23;8.25;;;5.30;;
43248;SDS011;29216;51.248;6.808;2023-05-20T11:52:54;6.05;;;4.95;;
43248;SDS011;29216;51.248;6.808;2023-05-20T11:55:21;7.95;;;5.30;;
43248;SDS011;29216;51.248;6.808;2023-05-20T11:57:47;7.85;;;5.10;;
43248;SDS011;29216;51.248;6.808;2023-05-20T12:00:13;6.47;;;5.28;;
43248;SDS011;29216;51.248;6.808;2023-05-20T12:02:39;7.47;;;5.15;;
43248;SDS011;29216;51.248;6.808;2023-05-20T12:05:05;6.88;;;4.40;;
43248;SDS011;29216;51.248;6.808;2023-05-20T12:07:32;8.57;;;5.30;;
43248;SDS011;29216;51.248;6.808;2023-05-20T12:09:58;9.30;;;4.93;;
43248;SDS011;29216;51.248;6.808;2023-05-20T12:12:24;6.65;;;4.68;;
43248;SDS011;29216;51.248;6.808;2023-05-20T12:14:50;8.00;;;5.15;;
43248;SDS011;29216;51.248;6.808;2023-05-20T12:17:16;7.82;;;5.75;;
43248;SDS011;29216;51.248;6.808;2023-05-20T12:19:42;8.13;;;5.28;;
43248;SDS011;29216;51.248;6.808;2023-05-20T12:22:08;7.22;;;4.68;;
43248;SDS011;29216;51.248;6.808;2023-05-20T12:24:34;7.55;;;5.03;;
43248;SDS011;29216;51.248;6.808;2023-05-20T12:27:01;6.03;;;4.82;;
43248;SDS011;29216;51.248;6.808;2023-05-20T12:29:31;8.43;;;5.72;;
43248;SDS011;29216;51.248;6.808;2023-05-20T12:31:57;6.85;;;5.53;;
43248;SDS011;29216;51.248;6.808;2023-05-20T12:34:23;9.57;;;5.00;;
43248;SDS011;29216;51.248;6.808;2023-05-20T12:36:49;9.55;;;5.78;;
43248;SDS011;29216;51.248;6.808;2023-05-20T12:39:17;7.28;;;5.25;;
43248;SDS011;29216;51.248;6.808;2023-05-20T12:41:43;8.18;;;5.30;;
43248;SDS011;29216;51.248;6.808;2023-05-20T12:44:09;6.40;;;4.43;;
43248;SDS011;29216;51.248;6.808;2023-05-20T12:46:36;6.50;;;4.93;;
43248;SDS011;29216;51.248;6.808;2023-05-20T12:49:02;8.55;;;5.22;;
43248;SDS011;29216;51.248;6.808;2023-05-20T12:51:28;5.90;;;5.07;;
43248;SDS011;29216;51.248;6.808;2023-05-20T12:53:54;5.60;;;4.50;;
43248;SDS011;29216;51.248;6.808;2023-05-20T12:56:20;8.45;;;4.53;;
43248;SDS011;29216;51.248;6.808;2023-05-20T12:58:47;6.10;;;4.38;;
43248;SDS011;29216;51.248;6.808;2023-05-20T13:01:13;5.80;;;4.65;;
43248;SDS011;29216;51.248;6.808;2023-05-20T13:03:39;6.25;;;4.55;;
43248;SDS011;29216;51.248;6.808;2023-05-20T13:06:05;5.22;;;3.90;;
43248;SDS011;29216;51.248;6.808;2023-05-20T13:08:31;5.65;;;4.25;;
43248;SDS011;29216;51.248;6.808;2023-05-20T13:10:57;5.05;;;3.95;;
43248;SDS011;29216;51.248;6.808;2023-05-20T13:13:23;7.20;;;4.38;;
43248;SDS011;29216;51.248;6.808;2023-05-20T13:15:49;4.55;;;3.55;;
43248;SDS011;29216;51.248;6.808;2023-05-20T13:18:15;7.38;;;4.07;;
43248;SDS011;29216;51.248;6.808;2023-05-20T13:20:42;7.40;;;3.90;;
43248;SDS011;29216;51.248;6.808;2023-05-20T13:23:08;6.03;;;3.83;;
43248;SDS011;29216;51.248;6.808;2023-05-20T13:25:34;5.95;;;3.83;;
43248;SDS011;29216;51.248;6.808;2023-05-20T13:28:00;5.35;;;3.70;;
43248;SDS011;29216;51.248;6.808;2023-05-20T13:30:27;5.63;;;4.00;;
43248;SDS011;29216;51.248;6.808;2023-05-20T13:32:53;6.13;;;3.85;;
43248;SDS011;29216;51.248;6.808;2023-05-20T13:35:19;4.50;;;3.60;;
43248;SDS011;29216;51.248;6.808;2023-05-20T13:37:45;5.20;;;3.88;;
43248;SDS011;29216;51.248;6.808;2023-05-20T13:40:11;5.78;;;3.60;;
43248;SDS011;29216;51.248;6.808;2023-05-20T13:42:37;5.85;;;3.15;;
43248;SDS011;29216;51.248;6.808;2023-05-20T13:45:03;6.72;;;3.55;;
43248;SDS011;29216;51.248;6.808;2023-05-20T13:47:30;4.65;;;3.15;;
43248;SDS011;29216;51.248;6.808;2023-05-20T13:49:56;7.10;;;3.70;;
43248;SDS011;29216;51.248;6.808;2023-05-20T13:52:22;4.57;;;4.00;;
43248;SDS011;29216;51.248;6.808;2023-05-20T13:54:48;4.38;;;3.88;;
43248;SDS011;29216;51.248;6.808;2023-05-20T13:57:14;6.07;;;3.35;;
43248;SDS011;29216;51.248;6.808;2023-05-20T13:59:40;7.03;;;3.97;;
43248;SDS011;29216;51.248;6.808;2023-05-20T14:02:06;6.80;;;3.83;;
43248;SDS011;29216;51.248;6.808;2023-05-20T14:04:32;5.20;;;3.88;;
43248;SDS011;29216;51.248;6.808;2023-05-20T14:07:06;5.90;;;3.58;;
43248;SDS011;29216;51.248;6.808;2023-05-20T14:09:32;8.25;;;3.90;;
43248;SDS011;29216;51.248;6.808;2023-05-20T14:11:58;6.05;;;3.53;;
43248;SDS011;29216;51.248;6.808;2023-05-20T14:14:24;5.88;;;3.55;;
43248;SDS011;29216;51.248;6.808;2023-05-20T14:16:50;6.72;;;4.00;;
43248;SDS011;29216;51.248;6.808;2023-05-20T14:19:16;5.10;;;3.78;;
43248;SDS011;29216;51.248;6.808;2023-05-20T14:21:42;5.72;;;3.78;;
43248;SDS011;29216;51.248;6.808;2023-05-20T14:24:08;5.50;;;3.60;;
43248;SDS011;29216;51.248;6.808;2023-05-20T14:26:34;4.97;;;3.63;;
43248;SDS011;29216;51.248;6.808;2023-05-20T14:29:00;5.57;;;3.97;;
43248;SDS011;29216;51.248;6.808;2023-05-20T14:31:26;4.68;;;3.65;;
43248;SDS011;29216;51.248;6.808;2023-05-20T14:33:52;7.65;;;3.25;;
43248;SDS011;29216;51.248;6.808;2023-05-20T14:36:18;5.05;;;3.58;;
43248;SDS011;29216;51.248;6.808;2023-05-20T14:38:44;4.75;;;3.47;;
43248;SDS011;29216;51.248;6.808;2023-05-20T14:41:10;4.55;;;3.58;;
43248;SDS011;29216;51.248;6.808;2023-05-20T14:43:36;5.80;;;3.92;;
43248;SDS011;29216;51.248;6.808;2023-05-20T14:46:02;4.13;;;3.50;;
43248;SDS011;29216;51.248;6.808;2023-05-20T14:48:28;5.03;;;3.80;;
43248;SDS011;29216;51.248;6.808;2023-05-20T14:50:54;6.10;;;3.75;;
43248;SDS011;29216;51.248;6.808;2023-05-20T14:53:21;4.07;;;3.40;;
43248;SDS011;29216;51.248;6.808;2023-05-20T14:55:47;4.28;;;3.63;;